עמוד ראשי
METAR-TAF:

METAR-TAF

שדות תעופה :

יזד, איראן

קו רוחב: 31-54N, קו אורך: 054-24E, גובה: 1238מטר

תצפית מזג אוויר נוכחית

הדו"ח נערך לפני 40דקות, בשעה 19:30 UTC
רוח 4קשר מכיוון דרום-מזרח
טמפרטורת 33 צלסיוס
לחות 15%
לחץ 1009 hPa
ראות: 4000מטר
עננים פזורים בגובה 4000רגל
אבק נרחבת,

METAR: OIYY 131930Z 14004KT 4000 DU SCT040 33/03 Q1009

זמן: 00:40 (20:10 UTC)

תחזית

הדו"ח נערך לפני 3 שעות ו 10דקות, בשעה 17:00 UTC
תחזית בתוקף מ 13 ב 18 UTC עד 14 ב 03 UTC
רוח 10קשר מכיוון דרום-מזרח
ראות: 4000מטר
מעט עננים בגובה 4000רגל
אבק נרחבת
יעשה מ
13 ב 21 UTC עד 13 ב 23 UTC
ראות: 6000מטר

TAF: OIYY 131700Z 1318/1403 14010KT 4000 DU FEW040 BECMG 1321/1323 6000

תצפיות ותחזיות מזג אוויר לגבי יותר מ- 4,000 שדות תעופה ברחבי העולם. דוחות METAR ו- TAF.

התחנות הזמינות מסומנות בנקודות צהובות ואדומות על גבי המפה.

העבר את העכבר לנקודה הצבעונית על מנת לראות את שם התחנה.

לאחר מכן, לחץ כדי לראות את תוכן ואת תחזיות מזג האוויר.

כדי לשנות את המפה: לחץ על הכפתורים הירוקים עם הפלוס השחור כדי להתקרב; על הכפתור הירוק עם המקף כדי להתרחק; או בחיצים הירוקים למפות סמוכות.


METAR-TAF: